• Join FlightAware (Why Join?)
  • Login
  • US Flag 
12:18AM EST


 

Airport Tracker/Info


-or-


 

Live Flight TrackerFlight Track Log ✈ SWA1046 ✈ 05-May-2013 ✈ KSTL - KDAL

Flight Track Log - Related Links

Times and Time Zones

All times are in EDT time to prevent confusion due to time zone crossing. See the SWA1046 flight status page for this flight to view local times or setup timezone preferences in your user account.

Time Position Orientation Groundspeed Altitude Reporting Facility
EDT Latitude Longitude Course Direction KTS MPH feet Rate Location/Type
02:17PM 38.7667 -90.4667 270° West 249 287 3,700  Level Gateway (St. Louis) TRACON
02:18PM 38.7525 -90.4769 210° Southwest 277 319 4,100 2,700 Climbing Kansas City Center
02:19PM 38.6933 -90.5392 219° Southwest 280 322 7,600 3,360 Climbing Kansas City Center
02:20PM 38.6181 -90.6231 221° Southwest 298 343 11,100 3,060 Climbing Kansas City Center
02:21PM 38.5433 -90.7072 221° Southwest 349 402 14,000 3,000 Climbing Kansas City Center
02:22PM 38.3651 -90.8198 238° Southwest  Level FlightAware Approximate
02:22PM 38.4644 -90.7944 221° Southwest 370 426 17,300  Level Kansas City Center
02:23PM 38.3811 -90.8872 221° Southwest 391 450 20,200 2,700 Climbing Kansas City Center
02:24PM 38.2928 -90.9858 221° Southwest 414 476 22,900 2,640 Climbing Kansas City Center
02:25PM 38.1850 -91.1125 223° Southwest 432 497 25,700 2,220 Climbing Kansas City Center
02:26PM 38.0931 -91.2189 222° Southwest 441 507 27,600 1,080 Climbing Kansas City Center
02:27PM 37.9978 -91.3311 223° Southwest 451 519 28,000 840 Climbing Kansas City Center
02:28PM 37.8983 -91.4442 222° Southwest 462 532 29,400 1,500 Climbing Kansas City Center
02:29PM 37.7928 -91.5625 222° Southwest 498 573 31,100 1,800 Climbing Kansas City Center
02:30PM 37.6922 -91.6775 222° Southwest 489 563 33,200 2,160 Climbing Kansas City Center
02:31PM 37.5922 -91.7908 222° Southwest 481 554 35,600 1,320 Climbing Kansas City Center
02:32PM 37.4778 -91.9203 222° Southwest 462 532 36,000 420 Climbing Kansas City Center
02:33PM 37.3806 -92.0311 222° Southwest 464 534 36,500 840 Climbing Kansas City Center
02:34PM 37.2814 -92.1425 222° Southwest 472 543 37,800 720 Climbing Kansas City Center
02:35PM 37.1861 -92.2500 222° Southwest 465 535 38,000 60 Climbing Kansas City Center
02:36PM 37.0914 -92.3547 221° Southwest 458 527 38,000  Level Kansas City Center
02:37PM 36.9964 -92.4603 222° Southwest 455 524 38,000  Level Kansas City Center
02:38PM 36.9025 -92.5644 222° Southwest 452 520 38,000  Level Kansas City Center
02:39PM 36.8278 -92.6456 221° Southwest 452 520 38,000  Level Memphis Center
02:40PM 36.7447 -92.7392 222° Southwest 452 520 38,000  Level Memphis Center
02:41PM 36.6489 -92.8422 221° Southwest 452 520 38,000  Level Memphis Center
02:42PM 36.5528 -92.9503 222° Southwest 452 520 38,000  Level Memphis Center
02:43PM 36.4461 -93.0631 220° Southwest 457 526 38,000  Level Memphis Center
02:44PM 36.3478 -93.1733 222° Southwest 467 537 38,000  Level Memphis Center
02:45PM 36.2475 -93.2753 219° Southwest 467 537 38,000  Level Memphis Center
02:46PM 36.1511 -93.3797 221° Southwest 467 537 38,000  Level Memphis Center
02:47PM 36.0547 -93.4842 221° Southwest 467 537 38,000  Level Memphis Center
02:48PM 35.9564 -93.5881 221° Southwest 467 537 38,000  Level Memphis Center
02:49PM 35.8619 -93.6894 221° Southwest 467 537 38,000  Level Memphis Center
02:50PM 35.7653 -93.7878 220° Southwest 461 531 38,000  Level Memphis Center
02:51PM 35.6708 -93.8911 222° Southwest 461 531 38,000  Level Memphis Center
02:52PM 35.5761 -93.9894 220° Southwest 461 531 38,000  Level Memphis Center
02:53PM 35.4814 -94.0872 220° Southwest 455 524 38,000  Level Memphis Center
02:54PM 35.3931 -94.1825 221° Southwest 449 517 38,000  Level Memphis Center
02:55PM 35.2983 -94.2800 220° Southwest 444 511 38,000  Level Memphis Center
02:57PM 35.1417 -94.4456 221° Southwest 443 510 38,000  Level Fort Worth Center
02:58PM 35.0503 -94.5428 221° Southwest 443 510 38,000  Level Fort Worth Center
02:59PM 34.9747 -94.6211 220° Southwest 443 510 38,000  Level Fort Worth Center
03:00PM 34.8647 -94.7361 221° Southwest 443 510 38,000  Level Fort Worth Center
03:01PM 34.7728 -94.8275 219° Southwest 443 510 38,000  Level Fort Worth Center
03:02PM 34.6786 -94.9239 220° Southwest 443 510 38,000 -120 Level Fort Worth Center
03:03PM 34.5606 -94.9625 195° South 438 504 37,800 -600 Descending Fort Worth Center
03:04PM 34.4308 -94.9536 177° South 438 504 36,800 -1,500 Descending Fort Worth Center
03:05PM 34.2975 -94.9500 179° South 454 522 34,800 -1,860 Descending Fort Worth Center
03:06PM 34.1700 -94.9433 178° South 461 531 33,100 -1,680 Descending Fort Worth Center
03:07PM 34.0383 -94.9397 179° South 466 536 31,500 -1,560 Descending Fort Worth Center
03:08PM 33.9178 -94.9531 185° South 459 528 30,000 -1,200 Descending Fort Worth Center
03:09PM 33.8528 -95.0575 233° Southwest 372 428 29,100 -960 Descending Fort Worth Center
03:10PM 33.8008 -95.1714 241° Southwest 367 422 28,100 -1,200 Descending Fort Worth Center
03:11PM 33.7506 -95.2800 241° Southwest 378 435 26,800 -1,620 Descending Fort Worth Center
03:12PM 33.7022 -95.3886 242° Southwest 378 435 24,900 -1,800 Descending Fort Worth Center
03:13PM 33.6517 -95.4944 240° Southwest 372 428 23,300 -1,380 Descending Fort Worth Center
03:14PM 33.5992 -95.6131 242° Southwest 386 444 22,200 -1,800 Descending Fort Worth Center
03:15PM 33.5464 -95.7311 242° Southwest 402 463 19,700 -2,340 Descending Fort Worth Center
03:16PM 33.4956 -95.8367 240° Southwest 408 470 17,600 -2,520 Descending Fort Worth Center
03:17PM 33.4367 -95.9647 241° Southwest 408 470 14,700 -2,400 Descending Fort Worth Center
03:19PM 33.3325 -96.1878 241° Southwest 392 451 10,500 -1,620 Descending Fort Worth Center
03:20PM 33.2936 -96.2703 241° Southwest 350 403 10,000 -780 Descending Fort Worth Center
03:21PM 33.2486 -96.3603 239° Southwest 301 346 9,000 -960 Descending Fort Worth Center
03:22PM 33.2031 -96.4253 230° Southwest 290 334 8,100 -1,020 Descending Fort Worth Center
03:23PM 33.1453 -96.4978 226° Southwest 283 326 7,000 -1,020 Descending Fort Worth Center
03:24PM 33.0786 -96.5283 201° Southwest 276 318 6,100 -540 Descending Fort Worth Center
03:25PM 33.0081 -96.5661 204° Southwest 283 326 6,000 -240 Descending Fort Worth Center
03:26PM 32.9331 -96.5967 199° South 268 308 5,700 -720 Descending Fort Worth Center
03:27PM 32.8725 -96.6119 192° South 254 292 4,600 -1,140 Descending Fort Worth Center
03:28PM 32.8164 -96.6569 214° Southwest 230 265 3,500 -900 Descending Fort Worth Center
03:28PM 32.8000 -96.6833 234° Southwest 198 228 3,200 -780 Descending Dallas / Fort Worth TRACON
03:29PM 32.7833 -96.7333 248° West 169 194 2,300 -720 Descending Dallas / Fort Worth TRACON
03:30PM 32.8000 -96.7833 292° West 131 151 1,800 -600 Descending Dallas / Fort Worth TRACON
03:31PM 32.8167 -96.8167 301° West 138 159 1,100 -720 Descending Dallas / Fort Worth TRACON
03:34PM 32.8333 -96.8500 270° West  Level FlightAware Approximate